sensor_id;sensor_type;location;lat;lon;timestamp;pressure;altitude;pressure_sealevel;temperature;humidity
46412;BME280;32113;42.012;24.870;2024-03-29T00:02:03;98670.22;;;17.35;40.99
46412;BME280;32113;42.012;24.870;2024-03-29T00:04:29;98674.44;;;17.38;40.62
46412;BME280;32113;42.012;24.870;2024-03-29T00:06:55;98676.91;;;17.41;39.77
46412;BME280;32113;42.012;24.870;2024-03-29T00:09:20;98687.75;;;17.49;39.76
46412;BME280;32113;42.012;24.870;2024-03-29T00:11:45;98687.97;;;17.44;39.90
46412;BME280;32113;42.012;24.870;2024-03-29T00:14:11;98691.13;;;17.51;39.46
46412;BME280;32113;42.012;24.870;2024-03-29T00:16:36;98686.34;;;17.42;39.74
46412;BME280;32113;42.012;24.870;2024-03-29T00:19:01;98685.50;;;17.22;40.43
46412;BME280;32113;42.012;24.870;2024-03-29T00:21:27;98692.16;;;17.07;40.44
46412;BME280;32113;42.012;24.870;2024-03-29T00:23:52;98693.84;;;16.87;41.16
46412;BME280;32113;42.012;24.870;2024-03-29T00:26:18;98699.03;;;16.65;41.60
46412;BME280;32113;42.012;24.870;2024-03-29T00:28:43;98685.44;;;16.60;41.28
46412;BME280;32113;42.012;24.870;2024-03-29T00:31:09;98688.34;;;16.52;42.08
46412;BME280;32113;42.012;24.870;2024-03-29T00:33:35;98688.03;;;16.17;42.14
46412;BME280;32113;42.012;24.870;2024-03-29T00:36:00;98690.22;;;16.03;42.33
46412;BME280;32113;42.012;24.870;2024-03-29T00:38:26;98686.44;;;15.90;42.76
46412;BME280;32113;42.012;24.870;2024-03-29T00:40:51;98692.47;;;15.89;43.12
46412;BME280;32113;42.012;24.870;2024-03-29T00:43:17;98695.16;;;15.87;43.01
46412;BME280;32113;42.012;24.870;2024-03-29T00:45:42;98694.19;;;15.90;42.99
46412;BME280;32113;42.012;24.870;2024-03-29T00:48:08;98700.13;;;15.92;42.93
46412;BME280;32113;42.012;24.870;2024-03-29T00:50:34;98698.41;;;15.69;43.56
46412;BME280;32113;42.012;24.870;2024-03-29T00:52:59;98689.97;;;15.63;43.98
46412;BME280;32113;42.012;24.870;2024-03-29T00:55:25;98703.41;;;15.49;44.19
46412;BME280;32113;42.012;24.870;2024-03-29T00:57:51;98705.22;;;15.47;44.01
46412;BME280;32113;42.012;24.870;2024-03-29T01:00:16;98700.25;;;15.41;44.04
46412;BME280;32113;42.012;24.870;2024-03-29T01:02:42;98698.81;;;15.34;43.64
46412;BME280;32113;42.012;24.870;2024-03-29T01:05:07;98696.22;;;15.34;43.11
46412;BME280;32113;42.012;24.870;2024-03-29T01:07:33;98699.81;;;15.30;42.94
46412;BME280;32113;42.012;24.870;2024-03-29T01:09:59;98693.56;;;15.35;43.05
46412;BME280;32113;42.012;24.870;2024-03-29T01:12:24;98702.44;;;15.28;42.79
46412;BME280;32113;42.012;24.870;2024-03-29T01:14:50;98706.75;;;15.28;42.73
46412;BME280;32113;42.012;24.870;2024-03-29T01:17:16;98694.09;;;15.20;44.00
46412;BME280;32113;42.012;24.870;2024-03-29T01:19:41;98701.59;;;15.28;43.98
46412;BME280;32113;42.012;24.870;2024-03-29T01:22:06;98697.69;;;15.16;43.82
46412;BME280;32113;42.012;24.870;2024-03-29T01:24:33;98704.13;;;15.04;44.03
46412;BME280;32113;42.012;24.870;2024-03-29T01:26:59;98712.16;;;14.96;44.33
46412;BME280;32113;42.012;24.870;2024-03-29T01:29:25;98706.25;;;14.92;43.72
46412;BME280;32113;42.012;24.870;2024-03-29T01:31:50;98718.47;;;14.87;44.09
46412;BME280;32113;42.012;24.870;2024-03-29T01:34:15;98713.50;;;14.81;44.64
46412;BME280;32113;42.012;24.870;2024-03-29T01:36:42;98707.63;;;14.76;45.35
46412;BME280;32113;42.012;24.870;2024-03-29T01:39:07;98717.13;;;14.75;46.03
46412;BME280;32113;42.012;24.870;2024-03-29T01:41:34;98715.38;;;14.76;45.53
46412;BME280;32113;42.012;24.870;2024-03-29T01:43:59;98715.56;;;14.69;45.17
46412;BME280;32113;42.012;24.870;2024-03-29T01:46:25;98712.72;;;14.79;45.59
46412;BME280;32113;42.012;24.870;2024-03-29T01:48:52;98715.56;;;14.69;44.52
46412;BME280;32113;42.012;24.870;2024-03-29T01:51:19;98710.91;;;14.54;44.53
46412;BME280;32113;42.012;24.870;2024-03-29T01:53:47;98713.38;;;14.57;44.37
46412;BME280;32113;42.012;24.870;2024-03-29T01:56:14;98710.50;;;14.66;44.37
46412;BME280;32113;42.012;24.870;2024-03-29T01:58:39;98709.19;;;14.81;44.04
46412;BME280;32113;42.012;24.870;2024-03-29T02:01:07;98723.91;;;14.79;44.76
46412;BME280;32113;42.012;24.870;2024-03-29T02:03:33;98722.31;;;14.74;44.96
46412;BME280;32113;42.012;24.870;2024-03-29T02:05:58;98728.13;;;14.82;45.66
46412;BME280;32113;42.012;24.870;2024-03-29T02:08:26;98732.38;;;14.83;45.21
46412;BME280;32113;42.012;24.870;2024-03-29T02:10:51;98735.09;;;14.78;45.24
46412;BME280;32113;42.012;24.870;2024-03-29T02:13:17;98738.31;;;14.85;45.25
46412;BME280;32113;42.012;24.870;2024-03-29T02:15:42;98729.00;;;15.06;44.39
46412;BME280;32113;42.012;24.870;2024-03-29T02:18:08;98736.09;;;15.27;44.76
46412;BME280;32113;42.012;24.870;2024-03-29T02:20:34;98746.59;;;15.47;42.81
46412;BME280;32113;42.012;24.870;2024-03-29T02:23:10;98763.28;;;15.37;41.80
46412;BME280;32113;42.012;24.870;2024-03-29T02:25:36;98762.66;;;15.30;42.05
46412;BME280;32113;42.012;24.870;2024-03-29T02:28:03;98763.06;;;15.19;42.21
46412;BME280;32113;42.012;24.870;2024-03-29T02:30:29;98777.53;;;15.23;42.23
46412;BME280;32113;42.012;24.870;2024-03-29T02:33:01;98776.47;;;15.04;42.74
46412;BME280;32113;42.012;24.870;2024-03-29T02:35:27;98771.13;;;15.10;43.83
46412;BME280;32113;42.012;24.870;2024-03-29T02:37:52;98790.50;;;14.96;43.26
46412;BME280;32113;42.012;24.870;2024-03-29T02:40:19;98790.78;;;14.87;44.04
46412;BME280;32113;42.012;24.870;2024-03-29T02:42:44;98791.56;;;14.89;43.80
46412;BME280;32113;42.012;24.870;2024-03-29T02:45:09;98796.13;;;14.81;43.80
46412;BME280;32113;42.012;24.870;2024-03-29T02:47:35;98792.38;;;14.63;43.06
46412;BME280;32113;42.012;24.870;2024-03-29T02:50:00;98792.94;;;14.73;42.90
46412;BME280;32113;42.012;24.870;2024-03-29T02:52:26;98794.72;;;14.70;43.19
46412;BME280;32113;42.012;24.870;2024-03-29T02:54:51;98804.34;;;14.65;43.45
46412;BME280;32113;42.012;24.870;2024-03-29T02:57:17;98807.41;;;14.50;44.26
46412;BME280;32113;42.012;24.870;2024-03-29T02:59:42;98816.03;;;14.49;44.43
46412;BME280;32113;42.012;24.870;2024-03-29T03:02:08;98821.09;;;14.52;43.95
46412;BME280;32113;42.012;24.870;2024-03-29T03:04:34;98811.16;;;14.39;44.12
46412;BME280;32113;42.012;24.870;2024-03-29T03:06:59;98829.66;;;14.24;44.17
46412;BME280;32113;42.012;24.870;2024-03-29T03:09:44;98816.97;;;14.16;43.99
46412;BME280;32113;42.012;24.870;2024-03-29T03:12:31;98834.94;;;14.21;44.77
46412;BME280;32113;42.012;24.870;2024-03-29T03:15:00;98831.97;;;14.03;44.48
46412;BME280;32113;42.012;24.870;2024-03-29T03:17:28;98819.91;;;14.03;45.73
46412;BME280;32113;42.012;24.870;2024-03-29T03:19:54;98830.28;;;14.02;45.32
46412;BME280;32113;42.012;24.870;2024-03-29T03:22:20;98840.69;;;13.99;45.67
46412;BME280;32113;42.012;24.870;2024-03-29T03:24:45;98847.41;;;14.04;45.02
46412;BME280;32113;42.012;24.870;2024-03-29T03:27:11;98851.69;;;14.05;44.83
46412;BME280;32113;42.012;24.870;2024-03-29T03:29:36;98854.88;;;14.14;44.46
46412;BME280;32113;42.012;24.870;2024-03-29T03:32:02;98865.69;;;14.27;44.19
46412;BME280;32113;42.012;24.870;2024-03-29T03:34:28;98861.34;;;14.29;44.24
46412;BME280;32113;42.012;24.870;2024-03-29T03:36:53;98872.72;;;14.22;44.25
46412;BME280;32113;42.012;24.870;2024-03-29T03:39:18;98879.16;;;14.06;44.70
46412;BME280;32113;42.012;24.870;2024-03-29T03:41:44;98881.94;;;13.99;44.36
46412;BME280;32113;42.012;24.870;2024-03-29T03:44:09;98884.53;;;13.99;44.20
46412;BME280;32113;42.012;24.870;2024-03-29T03:46:34;98889.03;;;13.90;44.62
46412;BME280;32113;42.012;24.870;2024-03-29T03:49:00;98893.50;;;13.84;44.68
46412;BME280;32113;42.012;24.870;2024-03-29T03:51:25;98896.47;;;13.70;44.60
46412;BME280;32113;42.012;24.870;2024-03-29T03:53:50;98903.28;;;13.72;44.54
46412;BME280;32113;42.012;24.870;2024-03-29T03:56:16;98910.28;;;13.67;44.75
46412;BME280;32113;42.012;24.870;2024-03-29T03:58:44;98911.72;;;13.77;44.47
46412;BME280;32113;42.012;24.870;2024-03-29T04:01:09;98918.06;;;13.99;44.37
46412;BME280;32113;42.012;24.870;2024-03-29T04:03:34;98930.72;;;14.08;43.71
46412;BME280;32113;42.012;24.870;2024-03-29T04:06:03;98935.44;;;14.24;44.20
46412;BME280;32113;42.012;24.870;2024-03-29T04:08:28;98940.09;;;14.42;42.98
46412;BME280;32113;42.012;24.870;2024-03-29T04:10:54;98942.31;;;14.56;42.78
46412;BME280;32113;42.012;24.870;2024-03-29T04:13:19;98943.69;;;14.68;42.93
46412;BME280;32113;42.012;24.870;2024-03-29T04:15:44;98953.81;;;14.76;42.47
46412;BME280;32113;42.012;24.870;2024-03-29T04:18:10;98950.59;;;14.68;42.72
46412;BME280;32113;42.012;24.870;2024-03-29T04:20:35;98956.59;;;14.68;42.85
46412;BME280;32113;42.012;24.870;2024-03-29T04:23:04;98947.06;;;14.40;42.41
46412;BME280;32113;42.012;24.870;2024-03-29T04:25:29;98948.22;;;14.30;43.29
46412;BME280;32113;42.012;24.870;2024-03-29T04:27:54;98945.09;;;14.17;42.70
46412;BME280;32113;42.012;24.870;2024-03-29T04:30:20;98935.31;;;14.30;42.39
46412;BME280;32113;42.012;24.870;2024-03-29T04:32:45;98931.31;;;14.50;42.15
46412;BME280;32113;42.012;24.870;2024-03-29T04:35:11;98918.84;;;14.64;39.24
46412;BME280;32113;42.012;24.870;2024-03-29T04:37:36;98926.03;;;14.84;37.87
46412;BME280;32113;42.012;24.870;2024-03-29T04:40:01;98919.53;;;15.00;37.37
46412;BME280;32113;42.012;24.870;2024-03-29T04:42:28;98930.28;;;15.14;37.02
46412;BME280;32113;42.012;24.870;2024-03-29T04:44:54;98924.84;;;15.23;37.47
46412;BME280;32113;42.012;24.870;2024-03-29T04:47:19;98918.81;;;15.24;37.73
46412;BME280;32113;42.012;24.870;2024-03-29T04:49:45;98924.66;;;15.30;38.51
46412;BME280;32113;42.012;24.870;2024-03-29T04:52:10;98927.34;;;15.27;37.90
46412;BME280;32113;42.012;24.870;2024-03-29T04:54:35;98940.66;;;15.41;38.94
46412;BME280;32113;42.012;24.870;2024-03-29T04:57:02;98942.75;;;15.30;38.57
46412;BME280;32113;42.012;24.870;2024-03-29T04:59:28;98956.22;;;15.13;38.83
46412;BME280;32113;42.012;24.870;2024-03-29T05:01:55;98950.09;;;15.15;39.04
46412;BME280;32113;42.012;24.870;2024-03-29T05:04:24;98961.97;;;15.21;39.36
46412;BME280;32113;42.012;24.870;2024-03-29T05:06:56;98972.53;;;15.42;40.28
46412;BME280;32113;42.012;24.870;2024-03-29T05:09:23;98975.41;;;15.32;40.56
46412;BME280;32113;42.012;24.870;2024-03-29T05:11:48;98973.44;;;15.12;40.50
46412;BME280;32113;42.012;24.870;2024-03-29T05:14:15;98977.63;;;14.86;40.67
46412;BME280;32113;42.012;24.870;2024-03-29T05:16:43;98972.47;;;14.86;40.76
46412;BME280;32113;42.012;24.870;2024-03-29T05:19:09;98977.03;;;14.78;41.06
46412;BME280;32113;42.012;24.870;2024-03-29T05:21:34;98985.69;;;14.77;41.21
46412;BME280;32113;42.012;24.870;2024-03-29T05:23:59;98982.69;;;14.91;43.72
46412;BME280;32113;42.012;24.870;2024-03-29T05:26:25;98988.78;;;14.88;41.25
46412;BME280;32113;42.012;24.870;2024-03-29T05:28:50;98982.75;;;14.88;41.18
46412;BME280;32113;42.012;24.870;2024-03-29T05:31:16;98984.25;;;14.96;41.75
46412;BME280;32113;42.012;24.870;2024-03-29T05:33:41;98982.44;;;14.98;41.05
46412;BME280;32113;42.012;24.870;2024-03-29T05:36:07;98976.72;;;15.17;41.55
46412;BME280;32113;42.012;24.870;2024-03-29T05:38:36;98966.72;;;15.35;40.49
46412;BME280;32113;42.012;24.870;2024-03-29T05:41:01;98978.16;;;15.55;39.93
46412;BME280;32113;42.012;24.870;2024-03-29T05:43:27;98975.72;;;15.77;39.76
46412;BME280;32113;42.012;24.870;2024-03-29T05:45:52;98983.00;;;15.93;38.87
46412;BME280;32113;42.012;24.870;2024-03-29T05:48:18;98976.78;;;15.98;38.77
46412;BME280;32113;42.012;24.870;2024-03-29T05:50:44;98984.50;;;16.00;38.35
46412;BME280;32113;42.012;24.870;2024-03-29T05:53:10;98995.34;;;16.11;38.19
46412;BME280;32113;42.012;24.870;2024-03-29T05:55:36;98991.84;;;16.12;38.29
46412;BME280;32113;42.012;24.870;2024-03-29T05:58:01;99000.75;;;16.29;38.99
46412;BME280;32113;42.012;24.870;2024-03-29T06:00:28;99001.75;;;16.50;37.53
46412;BME280;32113;42.012;24.870;2024-03-29T06:02:54;99017.63;;;16.65;37.62
46412;BME280;32113;42.012;24.870;2024-03-29T06:05:20;99024.91;;;16.79;37.19
46412;BME280;32113;42.012;24.870;2024-03-29T06:07:45;99025.19;;;16.95;38.25
46412;BME280;32113;42.012;24.870;2024-03-29T06:10:11;99021.94;;;17.14;37.71
46412;BME280;32113;42.012;24.870;2024-03-29T06:12:36;99027.81;;;17.19;36.06
46412;BME280;32113;42.012;24.870;2024-03-29T06:15:05;99015.91;;;17.13;35.94
46412;BME280;32113;42.012;24.870;2024-03-29T06:17:49;99019.69;;;17.04;36.72
46412;BME280;32113;42.012;24.870;2024-03-29T06:20:14;99014.88;;;17.17;36.05
46412;BME280;32113;42.012;24.870;2024-03-29T06:22:40;99014.44;;;17.30;36.00
46412;BME280;32113;42.012;24.870;2024-03-29T06:25:05;99016.53;;;17.42;36.49
46412;BME280;32113;42.012;24.870;2024-03-29T06:27:36;99032.53;;;17.54;35.88
46412;BME280;32113;42.012;24.870;2024-03-29T06:30:03;99012.22;;;17.64;35.92
46412;BME280;32113;42.012;24.870;2024-03-29T06:32:29;99022.13;;;17.76;36.06
46412;BME280;32113;42.012;24.870;2024-03-29T06:34:55;99017.75;;;17.99;34.07
46412;BME280;32113;42.012;24.870;2024-03-29T06:37:21;99012.25;;;18.28;33.20
46412;BME280;32113;42.012;24.870;2024-03-29T06:39:48;99018.28;;;18.49;32.50
46412;BME280;32113;42.012;24.870;2024-03-29T06:42:13;99030.31;;;18.71;32.33
46412;BME280;32113;42.012;24.870;2024-03-29T06:44:39;99024.22;;;18.91;32.04
46412;BME280;32113;42.012;24.870;2024-03-29T06:47:04;99024.19;;;19.12;31.18
46412;BME280;32113;42.012;24.870;2024-03-29T06:49:30;99025.03;;;19.32;31.26
46412;BME280;32113;42.012;24.870;2024-03-29T06:51:57;99033.72;;;19.50;30.54
46412;BME280;32113;42.012;24.870;2024-03-29T06:54:24;99033.81;;;19.66;30.39
46412;BME280;32113;42.012;24.870;2024-03-29T06:56:52;99036.72;;;19.77;30.49
46412;BME280;32113;42.012;24.870;2024-03-29T06:59:18;99024.44;;;19.81;30.41
46412;BME280;32113;42.012;24.870;2024-03-29T07:01:44;99036.66;;;19.98;30.01
46412;BME280;32113;42.012;24.870;2024-03-29T07:04:09;99051.56;;;20.12;30.15
46412;BME280;32113;42.012;24.870;2024-03-29T07:06:35;99044.06;;;20.24;29.94
46412;BME280;32113;42.012;24.870;2024-03-29T07:09:02;99048.88;;;20.31;29.64
46412;BME280;32113;42.012;24.870;2024-03-29T07:11:28;99050.50;;;20.34;29.45
46412;BME280;32113;42.012;24.870;2024-03-29T07:13:54;99048.50;;;20.39;29.26
46412;BME280;32113;42.012;24.870;2024-03-29T07:16:19;99055.22;;;20.43;29.03
46412;BME280;32113;42.012;24.870;2024-03-29T07:18:45;99059.03;;;20.54;29.32
46412;BME280;32113;42.012;24.870;2024-03-29T07:21:10;99053.28;;;20.65;29.16
46412;BME280;32113;42.012;24.870;2024-03-29T07:23:35;99057.56;;;20.66;28.87
46412;BME280;32113;42.012;24.870;2024-03-29T07:26:02;99049.25;;;20.75;28.61
46412;BME280;32113;42.012;24.870;2024-03-29T07:28:28;99067.34;;;20.78;29.13
46412;BME280;32113;42.012;24.870;2024-03-29T07:30:54;99058.34;;;20.84;28.88
46412;BME280;32113;42.012;24.870;2024-03-29T07:33:20;99071.72;;;20.95;28.59
46412;BME280;32113;42.012;24.870;2024-03-29T07:35:49;99073.53;;;20.93;28.65
46412;BME280;32113;42.012;24.870;2024-03-29T07:38:14;99071.22;;;21.05;28.71
46412;BME280;32113;42.012;24.870;2024-03-29T07:40:42;99077.78;;;21.12;28.47
46412;BME280;32113;42.012;24.870;2024-03-29T07:43:08;99069.44;;;21.21;28.24
46412;BME280;32113;42.012;24.870;2024-03-29T07:45:33;99077.03;;;21.26;28.01
46412;BME280;32113;42.012;24.870;2024-03-29T07:47:59;99069.81;;;21.31;27.79
46412;BME280;32113;42.012;24.870;2024-03-29T07:50:25;99083.34;;;21.38;28.32
46412;BME280;32113;42.012;24.870;2024-03-29T07:52:51;99077.78;;;21.44;28.32
46412;BME280;32113;42.012;24.870;2024-03-29T07:55:16;99079.22;;;21.50;28.09
46412;BME280;32113;42.012;24.870;2024-03-29T07:57:42;99085.53;;;21.62;28.05
46412;BME280;32113;42.012;24.870;2024-03-29T08:00:08;99077.63;;;21.63;27.61
46412;BME280;32113;42.012;24.870;2024-03-29T08:02:35;99085.00;;;21.71;27.83
46412;BME280;32113;42.012;24.870;2024-03-29T08:05:01;99083.00;;;21.76;28.01
46412;BME280;32113;42.012;24.870;2024-03-29T08:07:26;99091.59;;;21.78;27.64
46412;BME280;32113;42.012;24.870;2024-03-29T08:09:52;99086.88;;;21.85;27.87
46412;BME280;32113;42.012;24.870;2024-03-29T08:12:17;99095.47;;;21.87;27.75
46412;BME280;32113;42.012;24.870;2024-03-29T08:14:43;99075.88;;;21.95;27.83
46412;BME280;32113;42.012;24.870;2024-03-29T08:17:09;99079.09;;;22.00;27.63
46412;BME280;32113;42.012;24.870;2024-03-29T08:19:41;99073.16;;;22.12;27.95
46412;BME280;32113;42.012;24.870;2024-03-29T08:22:09;99080.25;;;22.10;27.66
46412;BME280;32113;42.012;24.870;2024-03-29T08:24:38;99075.22;;;22.22;27.97
46412;BME280;32113;42.012;24.870;2024-03-29T08:27:03;99072.84;;;22.33;28.30
46412;BME280;32113;42.012;24.870;2024-03-29T08:29:29;99071.63;;;22.39;27.76
46412;BME280;32113;42.012;24.870;2024-03-29T08:31:54;99077.88;;;22.51;27.57
46412;BME280;32113;42.012;24.870;2024-03-29T08:34:19;99088.31;;;22.67;27.54
46412;BME280;32113;42.012;24.870;2024-03-29T08:36:45;99081.97;;;22.71;27.06
46412;BME280;32113;42.012;24.870;2024-03-29T08:39:10;99083.63;;;22.87;27.57
46412;BME280;32113;42.012;24.870;2024-03-29T08:41:36;99077.84;;;22.96;27.35
46412;BME280;32113;42.012;24.870;2024-03-29T08:44:02;99084.84;;;23.10;27.32
46412;BME280;32113;42.012;24.870;2024-03-29T08:46:28;99084.91;;;23.23;27.53
46412;BME280;32113;42.012;24.870;2024-03-29T08:48:54;99082.66;;;23.31;26.91
46412;BME280;32113;42.012;24.870;2024-03-29T08:51:20;99082.56;;;23.47;27.03
46412;BME280;32113;42.012;24.870;2024-03-29T08:53:46;99086.91;;;23.61;27.05
46412;BME280;32113;42.012;24.870;2024-03-29T08:56:12;99084.22;;;23.76;26.62
46412;BME280;32113;42.012;24.870;2024-03-29T08:58:38;99077.91;;;23.93;26.89
46412;BME280;32113;42.012;24.870;2024-03-29T09:01:04;99080.59;;;24.19;26.28
46412;BME280;32113;42.012;24.870;2024-03-29T09:03:30;99069.19;;;24.33;26.34
46412;BME280;32113;42.012;24.870;2024-03-29T09:05:56;99077.06;;;24.46;25.88
46412;BME280;32113;42.012;24.870;2024-03-29T09:08:21;99083.44;;;24.68;25.89
46412;BME280;32113;42.012;24.870;2024-03-29T09:10:47;99085.88;;;24.84;25.60
46412;BME280;32113;42.012;24.870;2024-03-29T09:13:12;99085.09;;;25.08;25.69
46412;BME280;32113;42.012;24.870;2024-03-29T09:15:38;99084.84;;;25.24;25.13
46412;BME280;32113;42.012;24.870;2024-03-29T09:18:03;99084.50;;;25.42;25.43
46412;BME280;32113;42.012;24.870;2024-03-29T09:20:38;99084.44;;;25.55;25.43
46412;BME280;32113;42.012;24.870;2024-03-29T09:23:04;99077.47;;;25.67;24.38
46412;BME280;32113;42.012;24.870;2024-03-29T09:25:30;99074.06;;;25.78;24.97
46412;BME280;32113;42.012;24.870;2024-03-29T09:27:57;99062.97;;;25.85;24.22
46412;BME280;32113;42.012;24.870;2024-03-29T09:30:22;99075.38;;;26.08;24.48
46412;BME280;32113;42.012;24.870;2024-03-29T09:32:48;99060.47;;;26.20;24.24
46412;BME280;32113;42.012;24.870;2024-03-29T09:35:16;99069.28;;;26.19;24.43
46412;BME280;32113;42.012;24.870;2024-03-29T09:37:42;99062.06;;;26.34;23.97
46412;BME280;32113;42.012;24.870;2024-03-29T09:40:09;99057.88;;;26.31;23.85
46412;BME280;32113;42.012;24.870;2024-03-29T09:42:35;99058.03;;;26.53;23.93
46412;BME280;32113;42.012;24.870;2024-03-29T09:45:04;99050.00;;;26.66;24.06
46412;BME280;32113;42.012;24.870;2024-03-29T09:47:31;99045.34;;;26.81;23.98
46412;BME280;32113;42.012;24.870;2024-03-29T09:49:59;99038.66;;;26.88;23.89
46412;BME280;32113;42.012;24.870;2024-03-29T09:52:28;99033.50;;;27.09;23.82
46412;BME280;32113;42.012;24.870;2024-03-29T09:54:55;99027.34;;;27.20;23.52
46412;BME280;32113;42.012;24.870;2024-03-29T09:57:21;99025.63;;;27.42;24.06
46412;BME280;32113;42.012;24.870;2024-03-29T09:59:49;99022.38;;;27.50;23.21
46412;BME280;32113;42.012;24.870;2024-03-29T10:02:16;99026.88;;;27.59;23.03
46412;BME280;32113;42.012;24.870;2024-03-29T10:04:45;99021.28;;;27.52;22.63
46412;BME280;32113;42.012;24.870;2024-03-29T10:07:12;99009.28;;;27.60;23.31
46412;BME280;32113;42.012;24.870;2024-03-29T10:09:41;99004.25;;;27.68;22.48
46412;BME280;32113;42.012;24.870;2024-03-29T10:12:08;98998.59;;;27.73;22.90
46412;BME280;32113;42.012;24.870;2024-03-29T10:14:43;98999.81;;;27.90;22.51
46412;BME280;32113;42.012;24.870;2024-03-29T10:17:15;98992.63;;;27.92;23.00
46412;BME280;32113;42.012;24.870;2024-03-29T10:19:40;98993.50;;;28.02;22.69
46412;BME280;32113;42.012;24.870;2024-03-29T10:22:08;98993.69;;;28.11;23.11
46412;BME280;32113;42.012;24.870;2024-03-29T10:24:34;98996.13;;;28.24;22.50
46412;BME280;32113;42.012;24.870;2024-03-29T10:26:59;98994.78;;;28.08;22.16
46412;BME280;32113;42.012;24.870;2024-03-29T10:29:28;98991.75;;;28.13;23.35
46412;BME280;32113;42.012;24.870;2024-03-29T10:31:55;98992.19;;;28.18;22.81
46412;BME280;32113;42.012;24.870;2024-03-29T10:34:21;98989.91;;;28.03;22.42
46412;BME280;32113;42.012;24.870;2024-03-29T10:36:49;98984.25;;;28.08;22.79
46412;BME280;32113;42.012;24.870;2024-03-29T10:39:16;98974.06;;;28.25;23.22
46412;BME280;32113;42.012;24.870;2024-03-29T10:41:43;98961.94;;;28.43;22.90
46412;BME280;32113;42.012;24.870;2024-03-29T10:44:10;98955.38;;;28.38;21.84
46412;BME280;32113;42.012;24.870;2024-03-29T10:46:40;98949.72;;;28.42;21.73
46412;BME280;32113;42.012;24.870;2024-03-29T10:49:10;98959.16;;;28.45;22.45
46412;BME280;32113;42.012;24.870;2024-03-29T10:51:40;98956.41;;;28.46;22.47
46412;BME280;32113;42.012;24.870;2024-03-29T10:54:08;98945.03;;;28.56;22.85
46412;BME280;32113;42.012;24.870;2024-03-29T10:56:35;98945.34;;;28.63;22.51
46412;BME280;32113;42.012;24.870;2024-03-29T10:59:08;98945.03;;;28.66;22.00
46412;BME280;32113;42.012;24.870;2024-03-29T11:01:39;98935.91;;;28.80;22.57
46412;BME280;32113;42.012;24.870;2024-03-29T11:04:13;98951.06;;;28.88;21.95
46412;BME280;32113;42.012;24.870;2024-03-29T11:06:43;98946.41;;;29.01;21.89
46412;BME280;32113;42.012;24.870;2024-03-29T11:09:13;98948.50;;;28.97;21.46
46412;BME280;32113;42.012;24.870;2024-03-29T11:11:42;98948.63;;;29.06;22.22
46412;BME280;32113;42.012;24.870;2024-03-29T11:14:13;98935.97;;;29.00;22.15
46412;BME280;32113;42.012;24.870;2024-03-29T11:16:41;98940.13;;;28.92;21.70
46412;BME280;32113;42.012;24.870;2024-03-29T11:19:12;98930.38;;;28.83;21.60
46412;BME280;32113;42.012;24.870;2024-03-29T11:21:39;98929.53;;;28.82;22.39
46412;BME280;32113;42.012;24.870;2024-03-29T11:24:07;98939.97;;;28.84;21.18
46412;BME280;32113;42.012;24.870;2024-03-29T11:26:33;98929.72;;;28.50;21.51
46412;BME280;32113;42.012;24.870;2024-03-29T11:28:59;98931.13;;;28.44;22.18
46412;BME280;32113;42.012;24.870;2024-03-29T11:31:26;98931.28;;;28.62;22.42
46412;BME280;32113;42.012;24.870;2024-03-29T11:33:51;98926.72;;;28.74;22.74
46412;BME280;32113;42.012;24.870;2024-03-29T11:36:27;98928.81;;;28.80;22.66
46412;BME280;32113;42.012;24.870;2024-03-29T11:38:56;98920.47;;;28.75;21.64
46412;BME280;32113;42.012;24.870;2024-03-29T11:41:26;98914.78;;;28.70;21.63
46412;BME280;32113;42.012;24.870;2024-03-29T11:43:55;98920.19;;;28.58;21.26
46412;BME280;32113;42.012;24.870;2024-03-29T11:46:22;98913.47;;;28.44;21.84
46412;BME280;32113;42.012;24.870;2024-03-29T11:48:48;98922.91;;;28.47;21.99
46412;BME280;32113;42.012;24.870;2024-03-29T11:51:19;98925.28;;;28.50;21.48
46412;BME280;32113;42.012;24.870;2024-03-29T11:53:56;98921.53;;;28.43;21.92
46412;BME280;32113;42.012;24.870;2024-03-29T11:56:21;98925.13;;;28.42;22.00
46412;BME280;32113;42.012;24.870;2024-03-29T11:58:47;98934.06;;;28.51;22.91
46412;BME280;32113;42.012;24.870;2024-03-29T12:01:15;98929.91;;;28.58;21.64
46412;BME280;32113;42.012;24.870;2024-03-29T12:03:42;98925.28;;;28.50;21.52
46412;BME280;32113;42.012;24.870;2024-03-29T12:06:09;98925.94;;;28.32;21.20
46412;BME280;32113;42.012;24.870;2024-03-29T12:08:43;98918.31;;;28.29;22.50
46412;BME280;32113;42.012;24.870;2024-03-29T12:11:09;98927.75;;;28.32;22.53
46412;BME280;32113;42.012;24.870;2024-03-29T12:13:34;98919.72;;;28.43;22.68
46412;BME280;32113;42.012;24.870;2024-03-29T12:16:00;98918.06;;;28.52;22.08
46412;BME280;32113;42.012;24.870;2024-03-29T12:18:26;98909.63;;;28.58;22.01
46412;BME280;32113;42.012;24.870;2024-03-29T12:20:53;98896.81;;;28.54;21.08
46412;BME280;32113;42.012;24.870;2024-03-29T12:23:22;98902.94;;;28.54;22.83
46412;BME280;32113;42.012;24.870;2024-03-29T12:25:49;98901.72;;;28.58;22.26
46412;BME280;32113;42.012;24.870;2024-03-29T12:28:15;98899.22;;;28.57;21.85
46412;BME280;32113;42.012;24.870;2024-03-29T12:30:46;98892.81;;;28.59;21.56
46412;BME280;32113;42.012;24.870;2024-03-29T12:33:14;98892.13;;;28.67;22.07
46412;BME280;32113;42.012;24.870;2024-03-29T12:35:46;98881.31;;;28.70;23.24
46412;BME280;32113;42.012;24.870;2024-03-29T12:38:15;98885.31;;;28.65;21.84
46412;BME280;32113;42.012;24.870;2024-03-29T12:40:42;98880.88;;;28.55;21.76
46412;BME280;32113;42.012;24.870;2024-03-29T12:43:09;98881.41;;;28.49;21.54
46412;BME280;32113;42.012;24.870;2024-03-29T12:45:37;98881.41;;;28.49;21.76
46412;BME280;32113;42.012;24.870;2024-03-29T12:48:19;98889.72;;;28.35;21.86